createdAt,value
2023-05-07T00:01:18.255Z,18.19
2023-05-07T00:03:47.487Z,18.28
2023-05-07T00:06:15.664Z,18.14
2023-05-07T00:08:43.374Z,18.13
2023-05-07T00:11:11.168Z,18.35
2023-05-07T00:13:38.926Z,18.13
2023-05-07T00:16:08.314Z,18.38
2023-05-07T00:18:36.196Z,18.34
2023-05-07T00:21:03.938Z,18.13
2023-05-07T00:23:31.650Z,18.21
2023-05-07T00:25:59.571Z,18.24
2023-05-07T00:28:27.287Z,18.02
2023-05-07T00:30:55.081Z,18.48
2023-05-07T00:33:24.181Z,18.23
2023-05-07T00:35:51.875Z,18.68
2023-05-07T00:38:19.629Z,18.71
2023-05-07T00:40:47.622Z,18.66
2023-05-07T00:43:15.935Z,18.54
2023-05-07T00:45:43.930Z,18.10
2023-05-07T00:48:12.075Z,18.47
2023-05-07T00:50:41.314Z,18.48
2023-05-07T00:53:09.551Z,18.47
2023-05-07T00:55:37.925Z,18.39
2023-05-07T00:58:05.700Z,18.65
2023-05-07T01:00:33.462Z,18.68
2023-05-07T01:03:01.257Z,18.57
2023-05-07T01:05:31.482Z,18.37
2023-05-07T01:08:02.267Z,18.35
2023-05-07T01:10:31.517Z,18.49
2023-05-07T01:13:01.522Z,18.50
2023-05-07T01:15:29.600Z,18.54
2023-05-07T01:17:58.082Z,18.30
2023-05-07T01:20:26.321Z,18.11
2023-05-07T01:22:55.692Z,18.39
2023-05-07T01:25:23.974Z,18.28
2023-05-07T01:27:51.653Z,18.47
2023-05-07T01:30:22.401Z,18.25
2023-05-07T01:32:54.199Z,18.22
2023-05-07T01:35:26.839Z,18.32
2023-05-07T01:37:57.102Z,18.10
2023-05-07T01:40:25.496Z,18.15
2023-05-07T01:42:54.029Z,18.26
2023-05-07T01:45:22.070Z,18.04
2023-05-07T01:47:51.292Z,18.15
2023-05-07T01:50:20.378Z,17.98
2023-05-07T01:52:49.137Z,18.28
2023-05-07T01:55:18.310Z,18.36
2023-05-07T01:57:46.129Z,18.34
2023-05-07T02:00:14.574Z,18.29
2023-05-07T02:02:42.358Z,18.25
2023-05-07T02:05:10.975Z,18.06
2023-05-07T02:07:38.733Z,18.10
2023-05-07T02:10:07.692Z,18.02
2023-05-07T02:12:36.771Z,17.88
2023-05-07T02:15:04.956Z,17.90
2023-05-07T02:17:33.960Z,17.89
2023-05-07T02:20:01.763Z,18.03
2023-05-07T02:22:29.513Z,18.01
2023-05-07T02:24:57.199Z,17.96
2023-05-07T02:27:24.948Z,18.03
2023-05-07T02:29:54.055Z,18.06
2023-05-07T02:32:21.744Z,17.93
2023-05-07T02:34:52.354Z,17.88
2023-05-07T02:37:20.057Z,17.83
2023-05-07T02:39:47.821Z,17.70
2023-05-07T02:42:15.634Z,17.70
2023-05-07T02:44:43.357Z,17.83
2023-05-07T02:47:14.094Z,17.79
2023-05-07T02:49:41.803Z,17.85
2023-05-07T02:52:09.980Z,17.75
2023-05-07T02:54:37.732Z,17.68
2023-05-07T02:57:05.410Z,17.74
2023-05-07T02:59:33.096Z,17.81
2023-05-07T03:02:00.784Z,17.95
2023-05-07T03:04:29.933Z,18.01
2023-05-07T03:06:57.744Z,17.97
2023-05-07T03:09:25.668Z,17.86
2023-05-07T03:11:53.740Z,17.84
2023-05-07T03:14:21.489Z,17.93
2023-05-07T03:16:49.190Z,17.50
2023-05-07T03:19:16.912Z,17.90
2023-05-07T03:21:45.954Z,17.93
2023-05-07T03:24:13.696Z,18.01
2023-05-07T03:26:41.375Z,18.09
2023-05-07T03:29:09.031Z,18.17
2023-05-07T03:31:36.880Z,18.21
2023-05-07T03:34:04.646Z,18.05
2023-05-07T03:36:32.510Z,17.97
2023-05-07T03:39:01.628Z,17.89
2023-05-07T03:41:30.650Z,17.99
2023-05-07T03:43:58.372Z,18.11
2023-05-07T03:46:27.205Z,18.18
2023-05-07T03:48:54.982Z,18.08
2023-05-07T03:51:22.824Z,18.19
2023-05-07T03:53:50.561Z,18.20
2023-05-07T03:56:19.776Z,17.98
2023-05-07T03:58:47.611Z,18.11
2023-05-07T04:01:15.344Z,18.07
2023-05-07T04:03:43.123Z,17.84
2023-05-07T04:06:11.608Z,18.01
2023-05-07T04:08:39.315Z,17.75
2023-05-07T04:11:07.014Z,17.87
2023-05-07T04:13:36.115Z,17.96
2023-05-07T04:16:05.293Z,18.16
2023-05-07T04:18:33.007Z,18.17
2023-05-07T04:21:00.728Z,18.25
2023-05-07T04:23:28.559Z,17.91
2023-05-07T04:25:56.363Z,18.02
2023-05-07T04:28:24.120Z,18.21
2023-05-07T04:30:53.194Z,18.29
2023-05-07T04:33:20.901Z,17.96
2023-05-07T04:35:48.573Z,18.03
2023-05-07T04:38:16.353Z,17.70
2023-05-07T04:40:44.318Z,17.74
2023-05-07T04:43:12.066Z,17.69
2023-05-07T04:45:42.319Z,17.79
2023-05-07T04:48:11.843Z,17.85
2023-05-07T04:50:39.577Z,17.94
2023-05-07T04:53:07.268Z,17.96
2023-05-07T04:55:34.951Z,17.82
2023-05-07T04:58:02.976Z,18.02
2023-05-07T05:00:30.678Z,17.90
2023-05-07T05:02:58.418Z,18.18
2023-05-07T05:05:27.618Z,18.02
2023-05-07T05:07:55.573Z,17.98
2023-05-07T05:10:24.796Z,18.04
2023-05-07T05:12:52.698Z,17.87
2023-05-07T05:15:20.770Z,17.97
2023-05-07T05:17:48.481Z,17.77
2023-05-07T05:20:16.236Z,18.06
2023-05-07T05:22:45.663Z,17.67
2023-05-07T05:25:13.469Z,17.95
2023-05-07T05:27:41.232Z,17.74
2023-05-07T05:30:10.097Z,17.92
2023-05-07T05:32:38.082Z,17.50
2023-05-07T05:35:06.721Z,18.04
2023-05-07T05:37:34.541Z,17.90
2023-05-07T05:40:04.163Z,18.20
2023-05-07T05:42:31.838Z,18.01
2023-05-07T05:44:59.569Z,18.35
2023-05-07T05:47:27.430Z,17.90
2023-05-07T05:49:55.302Z,18.03
2023-05-07T05:52:24.732Z,18.04
2023-05-07T05:54:52.481Z,17.88
2023-05-07T05:57:21.588Z,17.72
2023-05-07T05:59:49.406Z,17.64
2023-05-07T06:02:17.201Z,17.87
2023-05-07T06:04:45.065Z,18.42
2023-05-07T06:07:12.803Z,17.83
2023-05-07T06:09:40.528Z,17.64
2023-05-07T06:12:08.291Z,18.09
2023-05-07T06:14:37.375Z,17.74
2023-05-07T06:17:05.448Z,17.98
2023-05-07T06:19:33.223Z,18.09
2023-05-07T06:22:02.376Z,18.10
2023-05-07T06:24:30.632Z,17.88
2023-05-07T06:26:59.389Z,18.17
2023-05-07T06:29:27.969Z,18.26
2023-05-07T06:31:57.156Z,18.58
2023-05-07T06:34:24.921Z,18.64
2023-05-07T06:36:52.655Z,18.66
2023-05-07T06:39:20.458Z,18.74
2023-05-07T06:41:48.239Z,18.51
2023-05-07T06:44:16.156Z,18.80
2023-05-07T06:46:44.045Z,19.00
2023-05-07T06:49:13.178Z,19.17
2023-05-07T06:51:41.054Z,19.61
2023-05-07T06:54:08.788Z,19.32
2023-05-07T06:56:36.569Z,19.55
2023-05-07T06:59:04.966Z,18.84
2023-05-07T07:01:32.662Z,18.40
2023-05-07T07:04:00.494Z,18.83
2023-05-07T07:06:29.642Z,19.32
2023-05-07T07:08:57.304Z,19.61
2023-05-07T07:11:25.017Z,19.50
2023-05-07T07:13:52.874Z,19.39
2023-05-07T07:16:20.687Z,19.81
2023-05-07T07:18:48.484Z,19.56
2023-05-07T07:21:16.253Z,20.21
2023-05-07T07:23:45.419Z,19.86
2023-05-07T07:26:13.100Z,19.21
2023-05-07T07:28:47.156Z,20.01
2023-05-07T07:31:15.238Z,19.71
2023-05-07T07:33:43.044Z,18.96
2023-05-07T07:36:11.574Z,19.47
2023-05-07T07:38:39.492Z,19.97
2023-05-07T07:41:10.335Z,19.32
2023-05-07T07:43:38.086Z,20.16
2023-05-07T07:46:06.026Z,20.43
2023-05-07T07:48:33.671Z,20.02
2023-05-07T07:51:01.380Z,19.53
2023-05-07T07:53:29.051Z,18.78
2023-05-07T07:55:59.590Z,18.36
2023-05-07T07:58:28.802Z,18.56
2023-05-07T08:00:56.982Z,18.25
2023-05-07T08:03:24.917Z,18.06
2023-05-07T08:05:52.705Z,18.20
2023-05-07T08:08:20.583Z,18.06
2023-05-07T08:10:50.913Z,18.22
2023-05-07T08:13:19.413Z,18.14
2023-05-07T08:15:48.548Z,18.45
2023-05-07T08:18:16.280Z,18.41
2023-05-07T08:20:44.044Z,18.28
2023-05-07T08:23:11.856Z,18.28
2023-05-07T08:25:39.582Z,18.43
2023-05-07T08:28:09.613Z,17.99
2023-05-07T08:30:37.723Z,17.56
2023-05-07T08:33:06.861Z,17.93
2023-05-07T08:35:34.635Z,18.03
2023-05-07T08:38:02.346Z,17.93
2023-05-07T08:40:31.155Z,18.35
2023-05-07T08:43:00.300Z,18.64
2023-05-07T08:45:29.896Z,18.75
2023-05-07T08:48:01.793Z,18.74
2023-05-07T08:50:31.329Z,18.59
2023-05-07T08:52:59.306Z,18.91
2023-05-07T08:55:27.162Z,19.31
2023-05-07T08:57:54.870Z,19.08
2023-05-07T09:00:22.677Z,19.30
2023-05-07T09:02:50.725Z,19.45
2023-05-07T09:05:18.643Z,19.87
2023-05-07T09:07:47.906Z,19.87
2023-05-07T09:10:15.841Z,20.10
2023-05-07T09:12:43.635Z,19.74
2023-05-07T09:15:12.950Z,19.73
2023-05-07T09:17:42.198Z,20.16
2023-05-07T09:20:11.304Z,19.41
2023-05-07T09:22:39.913Z,19.72
2023-05-07T09:25:10.509Z,19.83
2023-05-07T09:27:38.774Z,19.61
2023-05-07T09:30:07.679Z,19.29
2023-05-07T09:32:39.164Z,19.73
2023-05-07T09:35:08.130Z,20.15
2023-05-07T09:37:35.863Z,20.09
2023-05-07T09:40:04.326Z,19.87
2023-05-07T09:42:33.447Z,19.77
2023-05-07T09:45:01.656Z,20.47
2023-05-07T09:47:34.565Z,21.00
2023-05-07T09:50:11.437Z,21.19
2023-05-07T09:52:41.478Z,21.37
2023-05-07T09:55:09.787Z,21.01
2023-05-07T09:57:40.941Z,21.01
2023-05-07T10:00:10.725Z,21.27
2023-05-07T10:02:39.198Z,21.53
2023-05-07T10:05:08.437Z,20.72
2023-05-07T10:07:37.265Z,20.21
2023-05-07T10:10:06.643Z,20.07
2023-05-07T10:12:39.772Z,19.79
2023-05-07T10:15:09.969Z,19.97
2023-05-07T10:17:38.656Z,20.00
2023-05-07T10:20:08.625Z,19.64
2023-05-07T10:22:41.389Z,19.81
2023-05-07T10:25:15.283Z,19.87
2023-05-07T10:27:45.490Z,20.00
2023-05-07T10:30:30.696Z,19.72
2023-05-07T10:33:06.899Z,19.75
2023-05-07T10:35:45.198Z,19.97
2023-05-07T10:38:13.175Z,20.41
2023-05-07T10:40:41.689Z,20.50
2023-05-07T10:43:11.014Z,20.79
2023-05-07T10:45:40.531Z,20.86
2023-05-07T10:48:27.262Z,21.52
2023-05-07T10:51:22.878Z,21.74
2023-05-07T10:53:50.737Z,21.56
2023-05-07T10:56:31.548Z,21.71
2023-05-07T10:59:33.086Z,21.52
2023-05-07T11:02:03.719Z,21.40
2023-05-07T11:04:35.544Z,21.47
2023-05-07T11:07:32.200Z,21.45
2023-05-07T11:10:06.352Z,21.10
2023-05-07T11:12:56.533Z,21.22
2023-05-07T11:15:39.535Z,21.63
2023-05-07T11:18:07.922Z,21.56
2023-05-07T11:20:58.539Z,21.10
2023-05-07T11:24:11.054Z,21.34
2023-05-07T11:26:48.957Z,21.82
2023-05-07T11:29:20.849Z,22.11
2023-05-07T11:31:53.041Z,22.06
2023-05-07T11:34:24.646Z,22.23
2023-05-07T11:36:52.810Z,21.79
2023-05-07T11:39:27.970Z,21.89
2023-05-07T11:41:57.153Z,20.75
2023-05-07T11:44:24.900Z,20.41
2023-05-07T11:46:52.608Z,20.76
2023-05-07T11:49:20.660Z,20.87
2023-05-07T11:51:48.612Z,20.77
2023-05-07T11:54:18.371Z,20.76
2023-05-07T11:56:48.204Z,20.97
2023-05-07T11:59:20.884Z,21.04
2023-05-07T12:01:49.565Z,21.20
2023-05-07T12:04:22.565Z,21.06
2023-05-07T12:06:51.990Z,21.17
2023-05-07T12:09:19.779Z,21.14
2023-05-07T12:11:48.468Z,21.06
2023-05-07T12:14:16.958Z,21.27
2023-05-07T12:16:47.231Z,21.92
2023-05-07T12:19:16.590Z,22.21
2023-05-07T12:21:44.516Z,21.93
2023-05-07T12:24:12.238Z,21.90
2023-05-07T12:26:41.743Z,21.84
2023-05-07T12:29:09.642Z,21.54
2023-05-07T12:31:37.419Z,21.93
2023-05-07T12:34:06.620Z,22.02
2023-05-07T12:36:40.619Z,21.10
2023-05-07T12:39:09.397Z,20.98
2023-05-07T12:41:38.796Z,21.15
2023-05-07T12:44:07.130Z,20.47
2023-05-07T12:46:40.520Z,20.42
2023-05-07T12:49:10.189Z,20.79
2023-05-07T12:51:37.960Z,21.43
2023-05-07T12:54:05.880Z,21.49
2023-05-07T12:56:33.754Z,21.44
2023-05-07T12:59:01.526Z,21.69
2023-05-07T13:01:31.726Z,22.36
2023-05-07T13:04:03.161Z,22.31
2023-05-07T13:06:32.429Z,22.49
2023-05-07T13:09:00.172Z,21.67
2023-05-07T13:11:27.894Z,22.31
2023-05-07T13:13:55.606Z,21.61
2023-05-07T13:16:23.349Z,21.28
2023-05-07T13:18:51.048Z,21.24
2023-05-07T13:21:18.735Z,21.06
2023-05-07T13:23:47.811Z,21.42
2023-05-07T13:26:26.278Z,20.73
2023-05-07T13:28:54.968Z,21.16
2023-05-07T13:31:22.869Z,21.50
2023-05-07T13:33:50.665Z,22.04
2023-05-07T13:36:18.428Z,22.14
2023-05-07T13:38:47.611Z,22.51
2023-05-07T13:41:15.745Z,23.44
2023-05-07T13:43:43.507Z,23.37
2023-05-07T13:48:38.866Z,22.39
2023-05-07T13:51:06.637Z,22.25
2023-05-07T13:53:34.311Z,22.66
2023-05-07T13:56:05.566Z,22.93
2023-05-07T13:58:33.600Z,23.41
2023-05-07T14:01:01.713Z,23.99
2023-05-07T14:03:29.591Z,23.69
2023-05-07T14:05:58.867Z,24.28
2023-05-07T14:08:26.711Z,24.63
2023-05-07T14:10:54.500Z,24.14
2023-05-07T14:13:23.749Z,24.51
2023-05-07T14:15:51.622Z,24.63
2023-05-07T14:18:19.401Z,24.77
2023-05-07T14:20:48.580Z,23.85
2023-05-07T14:23:18.485Z,23.91
2023-05-07T14:25:48.600Z,23.79
2023-05-07T14:28:16.296Z,23.97
2023-05-07T14:30:45.368Z,23.78
2023-05-07T14:33:13.072Z,23.37
2023-05-07T14:35:40.871Z,22.90
2023-05-07T14:38:08.547Z,22.43
2023-05-07T14:40:36.420Z,22.30
2023-05-07T14:43:04.084Z,21.99
2023-05-07T14:45:31.777Z,21.70
2023-05-07T14:48:00.939Z,21.79
2023-05-07T14:50:28.651Z,22.02
2023-05-07T14:52:56.331Z,22.17
2023-05-07T14:55:24.241Z,22.06
2023-05-07T14:57:51.948Z,22.11
2023-05-07T15:00:20.161Z,22.13
2023-05-07T15:02:47.974Z,22.36
2023-05-07T15:05:18.444Z,22.67
2023-05-07T15:07:47.295Z,22.69
2023-05-07T15:10:15.310Z,22.94
2023-05-07T15:12:43.141Z,23.55
2023-05-07T15:15:12.252Z,24.03
2023-05-07T15:17:40.146Z,23.46
2023-05-07T15:20:09.190Z,23.24
2023-05-07T15:22:38.855Z,22.89
2023-05-07T15:25:06.892Z,22.73
2023-05-07T15:27:34.642Z,22.68
2023-05-07T15:30:02.334Z,23.50
2023-05-07T15:32:29.996Z,23.51
2023-05-07T15:34:58.092Z,23.93
2023-05-07T15:37:25.817Z,23.57
2023-05-07T15:39:54.860Z,23.88
2023-05-07T15:42:22.577Z,24.40
2023-05-07T15:44:50.370Z,23.80
2023-05-07T15:47:18.196Z,23.21
2023-05-07T15:49:45.928Z,23.14
2023-05-07T15:52:14.646Z,23.25
2023-05-07T15:54:42.775Z,22.99
2023-05-07T15:57:12.292Z,22.44
2023-05-07T15:59:40.050Z,22.37
2023-05-07T16:02:08.123Z,22.08
2023-05-07T16:04:35.855Z,22.51
2023-05-07T16:07:04.000Z,22.38
2023-05-07T16:09:31.864Z,22.35
2023-05-07T16:11:59.759Z,22.96
2023-05-07T16:14:28.876Z,23.00
2023-05-07T16:16:57.139Z,22.56
2023-05-07T16:19:24.954Z,22.67
2023-05-07T16:21:53.054Z,22.90
2023-05-07T16:24:20.777Z,22.73
2023-05-07T16:26:48.479Z,23.46
2023-05-07T16:29:16.806Z,23.08
2023-05-07T16:31:45.880Z,22.79
2023-05-07T16:34:14.007Z,23.04
2023-05-07T16:36:41.948Z,22.47
2023-05-07T16:39:09.734Z,22.69
2023-05-07T16:41:37.455Z,22.44
2023-05-07T16:44:05.484Z,22.34
2023-05-07T16:46:33.238Z,22.34
2023-05-07T16:49:02.819Z,22.21
2023-05-07T16:51:30.499Z,22.19
2023-05-07T16:53:58.222Z,21.41
2023-05-07T16:56:26.168Z,21.84
2023-05-07T16:58:53.868Z,22.13
2023-05-07T17:01:21.703Z,21.91
2023-05-07T17:03:49.499Z,21.92
2023-05-07T17:06:18.604Z,22.06
2023-05-07T17:08:46.389Z,21.84
2023-05-07T17:11:14.072Z,21.81
2023-05-07T17:13:41.787Z,21.86
2023-05-07T17:16:09.758Z,21.49
2023-05-07T17:18:37.630Z,21.29
2023-05-07T17:21:05.576Z,20.96
2023-05-07T17:23:34.648Z,20.79
2023-05-07T17:26:02.295Z,20.40
2023-05-07T17:28:31.152Z,20.58
2023-05-07T17:30:58.842Z,20.40
2023-05-07T17:33:27.068Z,20.42
2023-05-07T17:35:55.766Z,20.52
2023-05-07T17:38:23.647Z,20.48
2023-05-07T17:40:52.845Z,20.73
2023-05-07T17:43:22.752Z,20.73
2023-05-07T17:45:50.783Z,20.63
2023-05-07T17:48:18.878Z,20.71
2023-05-07T17:50:46.803Z,20.26
2023-05-07T17:53:14.657Z,20.30
2023-05-07T17:55:43.634Z,20.52
2023-05-07T17:58:13.265Z,20.44
2023-05-07T18:00:41.197Z,20.35
2023-05-07T18:03:08.955Z,20.37
2023-05-07T18:05:38.328Z,20.62
2023-05-07T18:08:07.578Z,20.55
2023-05-07T18:10:35.352Z,20.40
2023-05-07T18:13:03.220Z,19.95
2023-05-07T18:15:32.507Z,20.05
2023-05-07T18:18:00.437Z,20.08
2023-05-07T18:20:28.206Z,20.26
2023-05-07T18:22:55.966Z,20.27
2023-05-07T18:25:23.855Z,20.08
2023-05-07T18:27:51.542Z,19.91
2023-05-07T18:30:19.394Z,19.79
2023-05-07T18:32:48.508Z,19.90
2023-05-07T18:35:16.855Z,19.69
2023-05-07T18:37:44.579Z,19.98
2023-05-07T18:40:13.504Z,19.75
2023-05-07T18:42:41.429Z,19.89
2023-05-07T18:45:09.728Z,19.82
2023-05-07T18:47:37.437Z,19.72
2023-05-07T18:50:08.264Z,19.47
2023-05-07T18:52:36.889Z,19.48
2023-05-07T18:55:05.385Z,19.43
2023-05-07T18:57:33.123Z,19.75
2023-05-07T19:00:00.805Z,19.59
2023-05-07T19:02:28.566Z,19.18
2023-05-07T19:04:56.325Z,19.61
2023-05-07T19:07:25.478Z,19.38
2023-05-07T19:10:04.264Z,19.36
2023-05-07T19:12:33.056Z,19.26
2023-05-07T19:15:00.820Z,19.02
2023-05-07T19:17:28.580Z,19.02
2023-05-07T19:19:56.421Z,18.88
2023-05-07T19:22:25.602Z,18.72
2023-05-07T19:24:53.373Z,18.86
2023-05-07T19:27:21.195Z,18.58
2023-05-07T19:29:48.845Z,18.62
2023-05-07T19:32:16.603Z,18.75
2023-05-07T19:34:44.275Z,18.70
2023-05-07T19:37:11.980Z,18.83
2023-05-07T19:39:41.596Z,18.72
2023-05-07T19:42:09.272Z,18.38
2023-05-07T19:44:36.932Z,18.41
2023-05-07T19:47:05.757Z,18.55
2023-05-07T19:49:33.601Z,18.30
2023-05-07T19:52:01.414Z,18.35
2023-05-07T19:54:29.849Z,18.15
2023-05-07T19:56:58.941Z,18.16
2023-05-07T19:59:27.373Z,17.73
2023-05-07T20:01:55.631Z,17.85
2023-05-07T20:04:29.030Z,17.50
2023-05-07T20:06:56.799Z,17.48
2023-05-07T20:09:24.558Z,17.72
2023-05-07T20:11:52.324Z,17.80
2023-05-07T20:14:21.448Z,17.81
2023-05-07T20:16:49.259Z,17.67
2023-05-07T20:19:17.868Z,18.02
2023-05-07T20:21:45.832Z,18.15
2023-05-07T20:24:13.702Z,18.18
2023-05-07T20:26:41.473Z,18.07
2023-05-07T20:29:09.229Z,17.79
2023-05-07T20:31:38.509Z,17.70
2023-05-07T20:34:06.467Z,17.77
2023-05-07T20:36:34.463Z,17.70
2023-05-07T20:39:02.243Z,17.44
2023-05-07T20:41:29.988Z,17.50
2023-05-07T20:43:58.098Z,17.42
2023-05-07T20:46:27.445Z,17.67
2023-05-07T20:48:56.650Z,17.63
2023-05-07T20:51:24.380Z,17.71
2023-05-07T20:53:52.167Z,17.69
2023-05-07T20:56:19.976Z,17.57
2023-05-07T20:58:47.742Z,17.53
2023-05-07T21:01:15.809Z,17.38
2023-05-07T21:03:43.569Z,17.48
2023-05-07T21:06:12.604Z,17.36
2023-05-07T21:08:40.323Z,17.38
2023-05-07T21:11:09.935Z,17.19
2023-05-07T21:13:37.683Z,17.17
2023-05-07T21:16:06.589Z,17.02
2023-05-07T21:18:34.303Z,17.13
2023-05-07T21:21:01.996Z,17.38
2023-05-07T21:23:31.037Z,17.38
2023-05-07T21:25:58.813Z,17.49
2023-05-07T21:28:26.617Z,17.54
2023-05-07T21:30:54.420Z,17.65
2023-05-07T21:33:22.244Z,17.70
2023-05-07T21:35:49.965Z,17.83
2023-05-07T21:38:18.672Z,17.83
2023-05-07T21:40:47.722Z,17.97
2023-05-07T21:43:15.405Z,17.96
2023-05-07T21:45:43.089Z,18.07
2023-05-07T21:48:10.856Z,17.98
2023-05-07T21:50:38.589Z,18.03
2023-05-07T21:53:06.375Z,17.97
2023-05-07T21:55:34.198Z,17.90
2023-05-07T21:58:06.079Z,17.89
2023-05-07T22:00:34.390Z,17.78
2023-05-07T22:03:02.476Z,17.73
2023-05-07T22:05:30.470Z,17.61
2023-05-07T22:07:58.189Z,17.69
2023-05-07T22:10:25.953Z,17.65
2023-05-07T22:12:53.940Z,17.68
2023-05-07T22:15:23.156Z,17.45
2023-05-07T22:17:50.876Z,17.32
2023-05-07T22:20:18.900Z,17.22
2023-05-07T22:22:48.423Z,17.29
2023-05-07T22:25:18.301Z,17.38
2023-05-07T22:27:46.051Z,17.42
2023-05-07T22:30:14.373Z,17.20
2023-05-07T22:32:44.811Z,17.07
2023-05-07T22:35:12.645Z,16.95
2023-05-07T22:37:40.423Z,16.89
2023-05-07T22:40:09.193Z,17.02
2023-05-07T22:42:36.943Z,16.96
2023-05-07T22:45:05.033Z,16.96
2023-05-07T22:47:32.844Z,17.05
2023-05-07T22:50:02.042Z,16.93
2023-05-07T22:52:30.018Z,17.08
2023-05-07T22:54:57.803Z,17.06
2023-05-07T22:57:25.493Z,17.33
2023-05-07T22:59:55.380Z,17.20
2023-05-07T23:02:23.476Z,16.93
2023-05-07T23:04:51.549Z,17.13
2023-05-07T23:07:20.582Z,17.24
2023-05-07T23:09:48.317Z,17.18
2023-05-07T23:12:16.016Z,17.49
2023-05-07T23:14:43.688Z,17.61
2023-05-07T23:17:11.544Z,17.50
2023-05-07T23:19:39.385Z,17.53
2023-05-07T23:22:07.106Z,17.56
2023-05-07T23:24:36.161Z,17.54
2023-05-07T23:27:05.736Z,17.41
2023-05-07T23:29:33.667Z,17.28
2023-05-07T23:32:01.904Z,17.55
2023-05-07T23:34:29.670Z,17.62
2023-05-07T23:36:57.471Z,17.70
2023-05-07T23:39:25.277Z,17.69
2023-05-07T23:41:54.372Z,17.83
2023-05-07T23:44:22.150Z,17.80
2023-05-07T23:46:50.005Z,17.80
2023-05-07T23:49:17.822Z,17.88
2023-05-07T23:51:45.587Z,17.87
2023-05-07T23:54:13.513Z,17.89
2023-05-07T23:56:41.213Z,17.87
2023-05-07T23:59:10.368Z,17.92
